Time;durP1;ratioP1;P1;durP2;ratioP2;P2;SDS_P1;SDS_P2;PMS_P1;PMS_P2;Temp;Humidity;BMP_temperature;BMP_pressure;BME280_temperature;BME280_humidity;BME280_pressure;Samples;Min_cycle;Max_cycle;Signal;HPM_P1;HPM_P2
2022/09/12 00:01:20;;;;;;;5.65;3.28;;;;;;;;;;10032497;28;20493;-61
2022/09/12 00:06:18;;;;;;;3.90;3.50;;;;;;;;;;10032517;28;20048;-61
2022/09/12 00:11:14;;;;;;;4.40;3.13;;;;;;;;;;10032466;28;20057;-60
2022/09/12 00:16:14;;;;;;;5.18;3.33;;;;;;;;;;10042035;28;20504;-60
2022/09/12 00:21:07;;;;;;;5.35;4.75;;;;;;;;;;10039293;28;20046;-60
2022/09/12 00:26:04;;;;;;;5.43;3.35;;;;;;;;;;10038976;28;20059;-60
2022/09/12 00:30:58;;;;;;;4.97;3.33;;;;;;;;;;10006997;28;20189;-60
2022/09/12 00:35:52;;;;;;;3.78;3.00;;;;;;;;;;9993242;28;20417;-60
2022/09/12 00:40:47;;;;;;;6.05;3.60;;;;;;;;;;9994210;28;20057;-60
2022/09/12 00:45:42;;;;;;;4.78;3.92;;;;;;;;;;10001767;28;20066;-60
2022/09/12 00:50:35;;;;;;;7.40;4.22;;;;;;;;;;10000225;28;20050;-60
2022/09/12 00:55:36;;;;;;;4.85;4.35;;;;;;;;;;10003091;28;20081;-61
2022/09/12 01:00:30;;;;;;;5.40;4.57;;;;;;;;;;9995499;28;20048;-60
2022/09/12 01:05:24;;;;;;;4.70;4.25;;;;;;;;;;9999539;28;20061;-60
2022/09/12 01:10:19;;;;;;;5.68;4.00;;;;;;;;;;9982262;28;20081;-60
2022/09/12 01:15:12;;;;;;;6.43;4.55;;;;;;;;;;9996331;28;20109;-61
2022/09/12 01:20:41;;;;;;;9.15;4.03;;;;;;;;;;10001029;28;20448;-60
2022/09/12 01:26:18;;;;;;;4.53;3.33;;;;;;;;;;9961373;28;20056;-60
2022/09/12 01:31:12;;;;;;;8.02;4.55;;;;;;;;;;9997099;28;20412;-59
2022/09/12 01:36:24;;;;;;;4.13;3.45;;;;;;;;;;10026123;28;20584;-59
2022/09/12 01:41:26;;;;;;;7.47;3.28;;;;;;;;;;10045660;28;20077;-59
2022/09/12 01:46:31;;;;;;;4.85;4.00;;;;;;;;;;10032706;28;20449;-60
2022/09/12 01:51:28;;;;;;;4.53;3.95;;;;;;;;;;10033841;28;20492;-61
2022/09/12 01:56:28;;;;;;;4.45;3.15;;;;;;;;;;10044436;28;20062;-61
2022/09/12 02:01:28;;;;;;;4.13;3.72;;;;;;;;;;10038103;28;20060;-61
2022/09/12 02:06:27;;;;;;;5.80;3.50;;;;;;;;;;10034349;28;20081;-61
2022/09/12 02:11:21;;;;;;;4.57;3.35;;;;;;;;;;10022667;28;20107;-61
2022/09/12 02:16:36;;;;;;;11.05;4.10;;;;;;;;;;10033410;28;20073;-61
2022/09/12 02:21:31;;;;;;;7.30;3.80;;;;;;;;;;10017344;28;20120;-61
2022/09/12 02:26:34;;;;;;;6.22;4.35;;;;;;;;;;10017943;28;20140;-61
2022/09/12 02:31:36;;;;;;;4.70;4.30;;;;;;;;;;10037616;28;20489;-61
2022/09/12 02:37:01;;;;;;;4.75;4.30;;;;;;;;;;10041337;28;20061;-60
2022/09/12 02:41:58;;;;;;;6.35;4.57;;;;;;;;;;10035670;28;20074;-60
2022/09/12 02:46:54;;;;;;;11.10;4.38;;;;;;;;;;10039544;28;20060;-60
2022/09/12 02:51:48;;;;;;;5.15;4.68;;;;;;;;;;10037441;28;20073;-63
2022/09/12 02:56:44;;;;;;;12.25;5.32;;;;;;;;;;10023746;28;20045;-62
2022/09/12 03:02:18;;;;;;;7.25;5.38;;;;;;;;;;10028461;28;20071;-62
2022/09/12 03:07:26;;;;;;;5.47;4.85;;;;;;;;;;10041364;28;20121;-62
2022/09/12 03:12:20;;;;;;;6.40;5.77;;;;;;;;;;10033755;28;20042;-62
2022/09/12 03:17:27;;;;;;;5.60;5.10;;;;;;;;;;10037453;28;20061;-61
2022/09/12 03:22:47;;;;;;;7.18;6.30;;;;;;;;;;10035630;28;20050;-61
2022/09/12 03:28:06;;;;;;;6.68;6.07;;;;;;;;;;10022437;28;20112;-61
2022/09/12 03:33:00;;;;;;;5.65;5.15;;;;;;;;;;10033226;28;20046;-61
2022/09/12 03:37:54;;;;;;;8.10;5.57;;;;;;;;;;10035468;28;20112;-62
2022/09/12 03:42:48;;;;;;;6.65;4.88;;;;;;;;;;10039421;28;20041;-61
2022/09/12 03:47:41;;;;;;;7.50;5.47;;;;;;;;;;10039638;28;20042;-61
2022/09/12 03:52:36;;;;;;;11.95;5.97;;;;;;;;;;10042875;28;20120;-62
2022/09/12 03:57:29;;;;;;;7.45;6.75;;;;;;;;;;10041495;28;20056;-61
2022/09/12 04:02:23;;;;;;;10.07;7.72;;;;;;;;;;10048582;28;20060;-61
2022/09/12 04:07:17;;;;;;;7.75;6.90;;;;;;;;;;10038699;28;20058;-62
2022/09/12 04:12:12;;;;;;;9.30;6.75;;;;;;;;;;10045557;28;20053;-61
2022/09/12 04:17:06;;;;;;;7.18;6.25;;;;;;;;;;10039886;28;20057;-61
2022/09/12 04:22:00;;;;;;;8.82;7.93;;;;;;;;;;10037974;28;20060;-61
2022/09/12 04:26:53;;;;;;;15.25;8.10;;;;;;;;;;10041709;28;20463;-61
2022/09/12 04:31:48;;;;;;;21.50;8.50;;;;;;;;;;10042193;28;20133;-60
2022/09/12 04:36:42;;;;;;;10.60;7.15;;;;;;;;;;10037141;28;20054;-61
2022/09/12 04:41:37;;;;;;;8.95;7.25;;;;;;;;;;10044641;28;20045;-61
2022/09/12 04:46:34;;;;;;;13.40;7.60;;;;;;;;;;10046906;28;20084;-61
2022/09/12 04:51:32;;;;;;;9.03;7.17;;;;;;;;;;10042659;28;20046;-61
2022/09/12 04:56:28;;;;;;;9.98;6.35;;;;;;;;;;10041035;28;20347;-62
2022/09/12 05:01:22;;;;;;;8.52;6.78;;;;;;;;;;10040837;28;20046;-60
2022/09/12 05:06:24;;;;;;;9.85;6.55;;;;;;;;;;10040774;28;20056;-60
2022/09/12 05:11:22;;;;;;;10.57;7.28;;;;;;;;;;10038083;28;20058;-60
2022/09/12 05:16:25;;;;;;;9.05;6.63;;;;;;;;;;10033444;28;20054;-60
2022/09/12 05:21:38;;;;;;;7.10;6.40;;;;;;;;;;10039818;28;20061;-60
2022/09/12 05:26:30;;;;;;;11.15;7.10;;;;;;;;;;10015782;28;20123;-63
2022/09/12 05:31:26;;;;;;;19.13;6.78;;;;;;;;;;10033682;28;20137;-60
2022/09/12 05:36:25;;;;;;;7.43;6.45;;;;;;;;;;10026922;28;20137;-61
2022/09/12 05:41:20;;;;;;;11.82;6.85;;;;;;;;;;10031906;28;20042;-61
2022/09/12 05:46:17;;;;;;;;;;;;;;;;;;10033724;28;20054;-61
2022/09/12 05:51:13;;;;;;;14.18;9.02;;;;;;;;;;10033184;28;19976;-61
2022/09/12 05:56:13;;;;;;;16.83;8.68;;;;;;;;;;10033072;28;20046;-61
2022/09/12 06:01:15;;;;;;;16.55;8.75;;;;;;;;;;10031172;28;20062;-60
2022/09/12 06:06:12;;;;;;;16.25;9.00;;;;;;;;;;10031630;28;20056;-60
2022/09/12 06:11:06;;;;;;;14.57;7.22;;;;;;;;;;10033457;28;20389;-62
2022/09/12 06:16:05;;;;;;;22.98;10.32;;;;;;;;;;10038501;28;20081;-63
2022/09/12 06:21:04;;;;;;;16.58;8.68;;;;;;;;;;10042840;28;20049;-61
2022/09/12 06:25:57;;;;;;;12.27;7.03;;;;;;;;;;10039384;28;20060;-61
2022/09/12 06:30:51;;;;;;;9.30;7.35;;;;;;;;;;10030240;28;20064;-61
2022/09/12 06:35:45;;;;;;;22.85;8.07;;;;;;;;;;10038353;28;20053;-61
2022/09/12 06:40:43;;;;;;;16.15;8.30;;;;;;;;;;10041756;28;20455;-61
2022/09/12 06:45:36;;;;;;;15.73;8.27;;;;;;;;;;10039443;28;20050;-61
2022/09/12 06:50:31;;;;;;;24.67;7.60;;;;;;;;;;10040952;28;20077;-62
2022/09/12 06:55:24;;;;;;;30.40;9.10;;;;;;;;;;10043352;28;20057;-61
2022/09/12 07:00:21;;;;;;;16.25;8.13;;;;;;;;;;10038988;28;20394;-62
2022/09/12 07:05:16;;;;;;;23.35;9.95;;;;;;;;;;10040173;28;20049;-62
2022/09/12 07:10:15;;;;;;;28.58;7.38;;;;;;;;;;10040688;28;20108;-61
2022/09/12 07:15:15;;;;;;;28.15;8.90;;;;;;;;;;10055820;28;20444;-62
2022/09/12 07:20:10;;;;;;;26.35;10.43;;;;;;;;;;10045774;28;20140;-63
2022/09/12 07:25:05;;;;;;;22.05;9.60;;;;;;;;;;10065120;28;20083;-62
2022/09/12 07:29:59;;;;;;;20.98;7.65;;;;;;;;;;10058068;28;20059;-62
2022/09/12 07:34:52;;;;;;;11.52;7.28;;;;;;;;;;10052891;28;20073;-62
2022/09/12 07:39:47;;;;;;;9.23;6.93;;;;;;;;;;10062340;28;20140;-62
2022/09/12 07:44:41;;;;;;;14.65;7.47;;;;;;;;;;10048937;28;20101;-62
2022/09/12 07:49:35;;;;;;;11.18;6.07;;;;;;;;;;10043293;28;20046;-62
2022/09/12 07:54:32;;;;;;;15.57;5.80;;;;;;;;;;10046883;28;20059;-62
2022/09/12 07:59:26;;;;;;;10.88;4.85;;;;;;;;;;10052215;28;20164;-62
2022/09/12 08:04:41;;;;;;;7.85;4.65;;;;;;;;;;10046970;28;20463;-62
2022/09/12 08:09:35;;;;;;;8.85;4.80;;;;;;;;;;10032676;28;20057;-62
2022/09/12 08:14:29;;;;;;;7.68;3.55;;;;;;;;;;10056431;28;20054;-62
2022/09/12 08:19:23;;;;;;;5.45;3.25;;;;;;;;;;10064889;28;20076;-63
2022/09/12 08:24:17;;;;;;;5.32;2.90;;;;;;;;;;10051534;28;20412;-62
2022/09/12 08:29:11;;;;;;;11.88;3.30;;;;;;;;;;10051550;28;20416;-63
2022/09/12 08:34:05;;;;;;;9.55;3.45;;;;;;;;;;10053011;28;20054;-63
2022/09/12 08:39:02;;;;;;;8.32;3.05;;;;;;;;;;10048899;28;20054;-62
2022/09/12 08:43:58;;;;;;;17.17;3.00;;;;;;;;;;10036509;28;20053;-63
2022/09/12 08:48:51;;;;;;;13.48;3.00;;;;;;;;;;10046079;28;20056;-63
2022/09/12 08:53:46;;;;;;;9.50;2.92;;;;;;;;;;10038015;28;20125;-64
2022/09/12 08:58:42;;;;;;;13.20;3.08;;;;;;;;;;10036428;28;20515;-63
2022/09/12 09:03:50;;;;;;;5.43;2.20;;;;;;;;;;10045874;28;20128;-62
2022/09/12 09:08:43;;;;;;;7.85;2.15;;;;;;;;;;10048626;28;20077;-62
2022/09/12 09:19:04;;;;;;;10.07;2.85;;;;;;;;;;10035875;28;20076;-62
2022/09/12 09:24:04;;;;;;;12.20;3.88;;;;;;;;;;10038297;28;20053;-61
2022/09/12 09:29:02;;;;;;;7.65;2.05;;;;;;;;;;10021138;28;20149;-60
2022/09/12 09:33:57;;;;;;;5.47;1.88;;;;;;;;;;10032773;28;20057;-61
2022/09/12 09:39:02;;;;;;;11.77;2.17;;;;;;;;;;10040939;28;20061;-64
2022/09/12 09:43:56;;;;;;;9.20;2.70;;;;;;;;;;10040389;28;20049;-61
2022/09/12 09:48:50;;;;;;;16.35;2.28;;;;;;;;;;10042906;28;20061;-61
2022/09/12 09:54:04;;;;;;;5.80;1.70;;;;;;;;;;10035896;28;20499;-61
2022/09/12 09:59:07;;;;;;;7.85;1.80;;;;;;;;;;10034378;28;20661;-62
2022/09/12 10:04:02;;;;;;;7.47;1.73;;;;;;;;;;10037884;28;20058;-62
2022/09/12 10:09:13;;;;;;;14.57;2.17;;;;;;;;;;10047175;28;20046;-62
2022/09/12 10:14:29;;;;;;;7.97;2.03;;;;;;;;;;10035423;28;20562;-61
2022/09/12 10:20:02;;;;;;;7.07;2.13;;;;;;;;;;10041738;28;20050;-62
2022/09/12 10:25:15;;;;;;;4.90;1.83;;;;;;;;;;10031872;28;20053;-62
2022/09/12 10:30:34;;;;;;;3.45;2.08;;;;;;;;;;10039345;28;20057;-62
2022/09/12 10:35:30;;;;;;;3.97;2.03;;;;;;;;;;10032058;28;20061;-62
2022/09/12 10:40:26;;;;;;;3.38;1.50;;;;;;;;;;10037082;28;20058;-62
2022/09/12 10:45:43;;;;;;;10.07;2.15;;;;;;;;;;10018883;28;20129;-62
2022/09/12 10:50:42;;;;;;;2.90;1.60;;;;;;;;;;10028475;28;20413;-62
2022/09/12 10:55:36;;;;;;;4.15;1.50;;;;;;;;;;10031456;28;20073;-62
2022/09/12 11:00:32;;;;;;;5.22;1.30;;;;;;;;;;10034260;28;20062;-62
2022/09/12 11:05:37;;;;;;;10.18;2.30;;;;;;;;;;10032260;28;20048;-62
2022/09/12 11:10:50;;;;;;;2.83;1.50;;;;;;;;;;10035806;28;20056;-62
2022/09/12 11:16:28;;;;;;;2.95;1.38;;;;;;;;;;10032867;28;20076;-62
2022/09/12 11:21:59;;;;;;;4.68;1.63;;;;;;;;;;10029172;28;20571;-62
2022/09/12 11:27:14;;;;;;;3.33;1.45;;;;;;;;;;10035844;28;20088;-61
2022/09/12 11:32:41;;;;;;;5.32;1.50;;;;;;;;;;10031440;28;20385;-61
2022/09/12 11:37:52;;;;;;;10.88;2.35;;;;;;;;;;10039165;28;20085;-62
2022/09/12 11:42:47;;;;;;;5.18;1.75;;;;;;;;;;10027546;28;20069;-62
2022/09/12 11:47:44;;;;;;;3.53;1.42;;;;;;;;;;10009977;28;20053;-61
2022/09/12 11:52:39;;;;;;;4.90;1.20;;;;;;;;;;10016855;28;20412;-62
2022/09/12 11:57:49;;;;;;;4.57;2.80;;;;;;;;;;10036448;28;20050;-62
2022/09/12 12:02:49;;;;;;;1.77;1.10;;;;;;;;;;10026433;28;20065;-62
2022/09/12 12:08:13;;;;;;;4.68;1.52;;;;;;;;;;10035590;28;20053;-61
2022/09/12 12:13:22;;;;;;;4.20;1.60;;;;;;;;;;10029952;28;20056;-61
2022/09/12 12:18:27;;;;;;;6.25;2.33;;;;;;;;;;10050886;28;20050;-61
2022/09/12 12:23:30;;;;;;;3.28;1.08;;;;;;;;;;10035702;28;20584;-61
2022/09/12 12:28:41;;;;;;;5.97;1.60;;;;;;;;;;10056258;28;20084;-61
2022/09/12 12:33:37;;;;;;;2.30;0.93;;;;;;;;;;10059826;28;20077;-61
2022/09/12 12:38:51;;;;;;;2.88;1.80;;;;;;;;;;10052248;28;20445;-61
2022/09/12 12:43:46;;;;;;;4.72;0.90;;;;;;;;;;10044917;28;20156;-61
2022/09/12 12:49:12;;;;;;;4.95;0.85;;;;;;;;;;10054986;28;20076;-62
2022/09/12 12:54:26;;;;;;;;;;;;;;;;;;10045705;28;20128;-60
2022/09/12 12:59:21;;;;;;;1.80;1.00;;;;;;;;;;10047893;28;20000;-61
2022/09/12 13:04:34;;;;;;;3.10;0.70;;;;;;;;;;10032288;28;20046;-60
2022/09/12 13:09:38;;;;;;;2.75;1.00;;;;;;;;;;10040561;28;20391;-60
2022/09/12 13:14:36;;;;;;;1.75;0.90;;;;;;;;;;10027570;28;20052;-60
2022/09/12 13:19:35;;;;;;;2.78;0.68;;;;;;;;;;10041638;28;20049;-60
2022/09/12 13:24:30;;;;;;;1.27;0.73;;;;;;;;;;10030151;28;20097;-61
2022/09/12 13:29:25;;;;;;;2.67;0.90;;;;;;;;;;10048976;28;20105;-61
2022/09/12 13:34:20;;;;;;;;;;;;;;;;;;10056286;28;20046;-62
2022/09/12 13:39:16;;;;;;;3.47;1.00;;;;;;;;;;10056621;28;20368;-62
2022/09/12 13:44:12;;;;;;;4.03;0.80;;;;;;;;;;10055507;28;20562;-61
2022/09/12 13:49:17;;;;;;;3.60;1.10;;;;;;;;;;10048483;28;20144;-62
2022/09/12 13:54:17;;;;;;;1.80;1.00;;;;;;;;;;10052484;28;20046;-61
2022/09/12 13:59:17;;;;;;;6.63;1.33;;;;;;;;;;10038150;28;20132;-61
2022/09/12 14:09:38;;;;;;;3.13;1.17;;;;;;;;;;10053250;28;20046;-61
2022/09/12 14:14:35;;;;;;;5.13;1.27;;;;;;;;;;10047454;28;20104;-61
2022/09/12 14:19:33;;;;;;;6.80;1.20;;;;;;;;;;10030855;28;20046;-61
2022/09/12 14:24:26;;;;;;;9.27;1.35;;;;;;;;;;10042198;28;20081;-61
2022/09/12 14:29:21;;;;;;;3.00;1.33;;;;;;;;;;10038511;28;20062;-61
2022/09/12 14:34:16;;;;;;;1.42;1.10;;;;;;;;;;10045799;28;20049;-61
2022/09/12 14:39:42;;;;;;;3.08;1.38;;;;;;;;;;10038382;28;20069;-61
2022/09/12 14:44:36;;;;;;;3.80;1.83;;;;;;;;;;10050299;28;20058;-61
2022/09/12 14:49:34;;;;;;;3.90;1.20;;;;;;;;;;10031693;28;20049;-61
2022/09/12 14:54:36;;;;;;;2.28;1.20;;;;;;;;;;10028586;28;20050;-61
2022/09/12 14:59:33;;;;;;;2.53;1.20;;;;;;;;;;10035506;28;20050;-61
2022/09/12 15:04:38;;;;;;;2.22;1.50;;;;;;;;;;10045315;28;20147;-62
2022/09/12 15:09:33;;;;;;;3.92;1.40;;;;;;;;;;10036968;28;20046;-62
2022/09/12 15:14:27;;;;;;;1.60;1.45;;;;;;;;;;10049087;28;20054;-72
2022/09/12 15:19:21;;;;;;;2.10;1.27;;;;;;;;;;10057337;28;20556;-63
2022/09/12 15:24:16;;;;;;;2.40;1.40;;;;;;;;;;10039262;28;20050;-63
2022/09/12 15:29:12;;;;;;;4.10;1.10;;;;;;;;;;10056764;28;20068;-63
2022/09/12 15:34:07;;;;;;;8.60;1.40;;;;;;;;;;10046116;28;20064;-63
2022/09/12 15:39:01;;;;;;;4.93;1.23;;;;;;;;;;10048887;28;20057;-62
2022/09/12 15:43:55;;;;;;;3.88;1.05;;;;;;;;;;10025903;28;20501;-62
2022/09/12 15:48:49;;;;;;;6.40;1.35;;;;;;;;;;10049495;28;20041;-63
2022/09/12 15:53:43;;;;;;;5.35;1.30;;;;;;;;;;10045567;28;20133;-62
2022/09/12 15:58:37;;;;;;;3.90;1.10;;;;;;;;;;10043506;28;20061;-62
2022/09/12 16:03:49;;;;;;;1.80;1.27;;;;;;;;;;10041189;28;20121;-62
2022/09/12 16:08:43;;;;;;;3.60;1.48;;;;;;;;;;10047550;28;20076;-62
2022/09/12 16:13:36;;;;;;;3.92;1.38;;;;;;;;;;10054968;28;21070;-62
2022/09/12 16:18:30;;;;;;;2.35;1.67;;;;;;;;;;10049433;28;20133;-62
2022/09/12 16:23:23;;;;;;;5.13;1.73;;;;;;;;;;10042069;28;20076;-62
2022/09/12 16:28:17;;;;;;;2.35;1.30;;;;;;;;;;10057049;28;20184;-62
2022/09/12 16:33:12;;;;;;;2.00;1.30;;;;;;;;;;10061224;28;20405;-62
2022/09/12 16:38:06;;;;;;;30.10;4.03;;;;;;;;;;10060889;28;20065;-62
2022/09/12 16:43:00;;;;;;;9.38;2.03;;;;;;;;;;10062425;28;20057;-65
2022/09/12 16:47:54;;;;;;;4.22;1.40;;;;;;;;;;10064010;28;20053;-63
2022/09/12 16:52:49;;;;;;;3.03;1.00;;;;;;;;;;10033357;28;20050;-63
2022/09/12 16:57:43;;;;;;;2.88;1.65;;;;;;;;;;10042194;28;20136;-63
2022/09/12 17:02:36;;;;;;;3.95;1.30;;;;;;;;;;10048964;28;20054;-63
2022/09/12 17:07:30;;;;;;;3.83;1.45;;;;;;;;;;10057492;28;20069;-63
2022/09/12 17:12:25;;;;;;;1.98;1.27;;;;;;;;;;10056003;28;20045;-63
2022/09/12 17:17:17;;;;;;;5.00;1.55;;;;;;;;;;10047276;28;20508;-63
2022/09/12 17:22:12;;;;;;;4.15;2.42;;;;;;;;;;10057286;28;20057;-63
2022/09/12 17:27:06;;;;;;;6.45;1.90;;;;;;;;;;10044656;28;20049;-63
2022/09/12 17:32:02;;;;;;;5.72;1.67;;;;;;;;;;10054486;28;20069;-63
2022/09/12 17:36:56;;;;;;;3.15;1.23;;;;;;;;;;10058355;28;20128;-62
2022/09/12 17:41:50;;;;;;;2.47;1.40;;;;;;;;;;10045991;28;20538;-62
2022/09/12 17:46:45;;;;;;;5.90;2.30;;;;;;;;;;10058348;28;20096;-62
2022/09/12 17:51:42;;;;;;;6.90;3.00;;;;;;;;;;10043582;28;20528;-62
2022/09/12 17:56:38;;;;;;;3.83;1.45;;;;;;;;;;10030991;28;20489;-64
2022/09/12 18:06:48;;;;;;;1.85;1.25;;;;;;;;;;10040786;28;20122;-64
2022/09/12 18:11:41;;;;;;;1.98;1.73;;;;;;;;;;10044504;28;20132;-62
2022/09/12 18:16:36;;;;;;;2.17;1.20;;;;;;;;;;10041415;28;20041;-63
2022/09/12 18:21:30;;;;;;;3.88;1.30;;;;;;;;;;10051909;28;20053;-61
2022/09/12 18:26:24;;;;;;;3.08;1.60;;;;;;;;;;10063363;28;20554;-63
2022/09/12 18:31:20;;;;;;;4.70;1.50;;;;;;;;;;10053712;28;20069;-62
2022/09/12 18:36:14;;;;;;;5.25;1.58;;;;;;;;;;10050593;28;20041;-63
2022/09/12 18:41:09;;;;;;;4.93;1.98;;;;;;;;;;10042444;28;20508;-63
2022/09/12 18:46:09;;;;;;;4.47;2.47;;;;;;;;;;10050860;28;20141;-62
2022/09/12 18:51:09;;;;;;;4.55;1.98;;;;;;;;;;10010180;28;20075;-62
2022/09/12 18:56:10;;;;;;;11.70;3.60;;;;;;;;;;10039982;28;20054;-61
2022/09/12 19:01:29;;;;;;;6.57;2.55;;;;;;;;;;10031304;28;20045;-62
2022/09/12 19:06:23;;;;;;;2.27;1.80;;;;;;;;;;10053545;28;20049;-61
2022/09/12 19:11:18;;;;;;;8.82;3.58;;;;;;;;;;10043191;28;20484;-62
2022/09/12 19:16:18;;;;;;;2.75;2.00;;;;;;;;;;10056657;28;20069;-61
2022/09/12 19:21:17;;;;;;;4.95;2.25;;;;;;;;;;10032412;28;20108;-61
2022/09/12 19:26:12;;;;;;;4.32;2.17;;;;;;;;;;10043286;28;20052;-61
2022/09/12 19:31:08;;;;;;;7.45;2.55;;;;;;;;;;10042860;28;20452;-61
2022/09/12 19:36:08;;;;;;;3.38;2.25;;;;;;;;;;10051665;28;20062;-62
2022/09/12 19:41:21;;;;;;;7.13;2.75;;;;;;;;;;10052519;28;20053;-62
2022/09/12 19:46:17;;;;;;;6.45;2.30;;;;;;;;;;10046500;28;20104;-62
2022/09/12 19:51:11;;;;;;;11.32;2.97;;;;;;;;;;10035620;28;20076;-61
2022/09/12 19:56:06;;;;;;;4.50;2.45;;;;;;;;;;10034256;28;20050;-67
2022/09/12 20:01:08;;;;;;;6.45;2.47;;;;;;;;;;10028918;28;20042;-60
2022/09/12 20:06:11;;;;;;;5.85;2.30;;;;;;;;;;10028355;28;20056;-59
2022/09/12 20:11:07;;;;;;;4.18;2.80;;;;;;;;;;10031978;28;20050;-59
2022/09/12 20:16:27;;;;;;;7.07;2.60;;;;;;;;;;10030810;28;20049;-60
2022/09/12 20:21:24;;;;;;;4.63;2.28;;;;;;;;;;10037892;28;20046;-60
2022/09/12 20:26:19;;;;;;;4.95;2.17;;;;;;;;;;10048751;28;20067;-61
2022/09/12 20:31:14;;;;;;;2.97;2.30;;;;;;;;;;10036796;28;20054;-56
2022/09/12 20:36:10;;;;;;;4.95;2.28;;;;;;;;;;10034714;28;20063;-58
2022/09/12 20:41:06;;;;;;;12.73;3.72;;;;;;;;;;10033910;28;20053;-62
2022/09/12 20:45:59;;;;;;;8.38;3.08;;;;;;;;;;10031974;28;20056;-62
2022/09/12 20:50:57;;;;;;;4.88;2.30;;;;;;;;;;10034817;28;20079;-62
2022/09/12 20:55:52;;;;;;;7.70;3.28;;;;;;;;;;10028903;28;20069;-63
2022/09/12 21:00:46;;;;;;;6.60;2.30;;;;;;;;;;10031772;28;20041;-61
2022/09/12 21:05:42;;;;;;;12.02;2.53;;;;;;;;;;10035976;28;20129;-60
2022/09/12 21:10:36;;;;;;;7.30;2.40;;;;;;;;;;10027155;28;20503;-60
2022/09/12 21:15:30;;;;;;;8.57;2.42;;;;;;;;;;10034320;28;20082;-60
2022/09/12 21:20:24;;;;;;;5.30;2.42;;;;;;;;;;10032799;28;20108;-60
2022/09/12 21:25:18;;;;;;;18.40;3.10;;;;;;;;;;10032681;28;20057;-59
2022/09/12 21:30:13;;;;;;;2.55;2.13;;;;;;;;;;10033911;28;20065;-60
2022/09/12 21:35:08;;;;;;;5.25;2.38;;;;;;;;;;10030365;28;20108;-60
2022/09/12 21:40:03;;;;;;;7.72;2.20;;;;;;;;;;10036077;28;20042;-60
2022/09/12 21:44:58;;;;;;;9.52;2.35;;;;;;;;;;10034945;28;20046;-61
2022/09/12 21:49:54;;;;;;;6.53;2.83;;;;;;;;;;10038466;28;20116;-61
2022/09/12 21:54:48;;;;;;;2.97;2.53;;;;;;;;;;10043406;28;20092;-60
2022/09/12 21:59:43;;;;;;;6.95;2.65;;;;;;;;;;10041962;28;20069;-61
2022/09/12 22:04:37;;;;;;;8.85;3.47;;;;;;;;;;10038866;28;20046;-61
2022/09/12 22:09:30;;;;;;;5.53;2.50;;;;;;;;;;10036602;28;20069;-61
2022/09/12 22:14:23;;;;;;;5.22;2.13;;;;;;;;;;10027170;28;20054;-61
2022/09/12 22:19:18;;;;;;;6.55;2.72;;;;;;;;;;10034582;28;20111;-63
2022/09/12 22:24:28;;;;;;;7.65;2.38;;;;;;;;;;10047014;28;20053;-61
2022/09/12 22:29:22;;;;;;;3.15;2.03;;;;;;;;;;10042999;28;20064;-61
2022/09/12 22:34:16;;;;;;;5.38;2.10;;;;;;;;;;10030822;28;20046;-61
2022/09/12 22:39:09;;;;;;;3.15;2.55;;;;;;;;;;10039251;28;20080;-62
2022/09/12 22:44:03;;;;;;;5.25;2.28;;;;;;;;;;10032580;28;20050;-61
2022/09/12 22:48:57;;;;;;;2.92;2.60;;;;;;;;;;10040328;28;20428;-61
2022/09/12 22:53:51;;;;;;;5.13;2.40;;;;;;;;;;10037626;28;20077;-61
2022/09/12 22:58:46;;;;;;;2.65;2.35;;;;;;;;;;10039860;28;20124;-61
2022/09/12 23:03:40;;;;;;;2.85;2.40;;;;;;;;;;10039428;28;20056;-61
2022/09/12 23:08:35;;;;;;;3.72;2.03;;;;;;;;;;10034565;28;20072;-61
2022/09/12 23:13:28;;;;;;;5.22;2.75;;;;;;;;;;10034997;28;20057;-61
2022/09/12 23:18:22;;;;;;;4.30;2.08;;;;;;;;;;10039442;28;20046;-64
2022/09/12 23:23:15;;;;;;;7.13;3.15;;;;;;;;;;10032441;28;20056;-61
2022/09/12 23:28:13;;;;;;;2.95;2.00;;;;;;;;;;10037729;28;20053;-61
2022/09/12 23:33:07;;;;;;;4.20;2.38;;;;;;;;;;10040140;28;20498;-62
2022/09/12 23:38:00;;;;;;;7.60;2.28;;;;;;;;;;10042330;28;20054;-62
2022/09/12 23:42:55;;;;;;;4.65;2.30;;;;;;;;;;10034869;28;20516;-61
2022/09/12 23:47:49;;;;;;;3.53;1.77;;;;;;;;;;10061010;28;20077;-63
2022/09/12 23:52:43;;;;;;;2.67;2.38;;;;;;;;;;10059963;28;20464;-63
2022/09/12 23:57:38;;;;;;;4.63;2.58;;;;;;;;;;10049767;28;20081;-62
